Terminal Aerodrome Forecast
Issued by NWS

Home | Current Version | Previous Version | Text Only | Print | Product List | Glossary On
Versions: 1 2 3 4 5 6 7 8 9 10 11 12 13 14 15 16 17 18 19 20 21 22 23 24 25 26 27 28 29 30
161
FTUS41 KBUF 290908 AAA
TAFIAG
TAF AMD
KIAG 290908Z 2909/3006 07007KT P6SM BKN090
     FM291500 04010KT P6SM BKN050
     FM292000 05011KT P6SM OVC035
     FM292200 06007KT P6SM OVC060
     FM300300 VRB03KT P6SM BKN130=

USA.gov is the U.S. government's official web portal to all federal, state and local government web resources and services.